Time;durP1;ratioP1;P1;durP2;ratioP2;P2;SDS_P1;SDS_P2;PMS_P1;PMS_P2;Temp;Humidity;BMP_temperature;BMP_pressure;BME280_temperature;BME280_humidity;BME280_pressure;Samples;Min_cycle;Max_cycle;Signal;HPM_P1;HPM_P2
2022/07/30 00:00:47;;;;;;;6.25;4.63;;;;;;;20.05;64.96;98861.22;5076210;28;20039;-79
2022/07/30 00:03:12;;;;;;;6.28;5.68;;;;;;;19.85;69.39;98867.13;5064350;28;20384;-79
2022/07/30 00:05:38;;;;;;;5.05;4.50;;;;;;;19.61;69.15;98874.75;5079056;28;20124;-79
2022/07/30 00:08:03;;;;;;;6.75;5.38;;;;;;;19.92;66.96;98864.78;5063444;28;20139;-79
2022/07/30 00:10:29;;;;;;;5.60;4.88;;;;;;;20.08;65.37;98885.78;5063400;28;20044;-79
2022/07/30 00:12:55;;;;;;;5.90;5.18;;;;;;;19.97;65.93;98870.88;5061069;28;20040;-80
2022/07/30 00:15:22;;;;;;;4.93;4.43;;;;;;;20.21;64.97;98872.47;5060446;28;20033;-79
2022/07/30 00:17:47;;;;;;;10.23;5.18;;;;;;;20.31;64.83;98873.03;5061631;28;20036;-79
2022/07/30 00:20:13;;;;;;;5.95;4.65;;;;;;;20.31;64.80;98877.66;5063435;28;20037;-79
2022/07/30 00:22:38;;;;;;;7.00;4.70;;;;;;;20.19;65.23;98879.00;5062228;28;20045;-79
2022/07/30 00:25:05;;;;;;;5.88;5.28;;;;;;;19.80;68.90;98878.88;5046178;28;20558;-79
2022/07/30 00:27:33;;;;;;;8.60;4.85;;;;;;;20.03;65.60;98871.53;5057921;28;20082;-79
2022/07/30 00:29:59;;;;;;;5.53;5.03;;;;;;;20.05;65.26;98869.34;5061941;28;20059;-79
2022/07/30 00:32:24;;;;;;;6.90;4.85;;;;;;;19.74;68.90;98882.03;5062822;28;20029;-79
2022/07/30 00:34:49;;;;;;;5.95;4.78;;;;;;;19.93;66.00;98882.63;5060557;28;20040;-79
2022/07/30 00:37:15;;;;;;;8.48;6.90;;;;;;;19.46;70.97;98861.56;5078372;28;20039;-79
2022/07/30 00:39:40;;;;;;;6.03;5.00;;;;;;;19.27;71.44;98865.19;5064869;28;20033;-79
2022/07/30 00:42:06;;;;;;;4.93;4.43;;;;;;;19.35;69.16;98858.28;5063362;28;20039;-79
2022/07/30 00:44:31;;;;;;;5.85;4.75;;;;;;;19.62;67.09;98863.59;5066467;28;20032;-79
2022/07/30 00:46:57;;;;;;;9.13;5.72;;;;;;;19.57;69.27;98865.66;5062173;28;20119;-80
2022/07/30 00:49:23;;;;;;;6.22;4.85;;;;;;;19.82;66.72;98876.66;5064665;28;20020;-80
2022/07/30 00:51:49;;;;;;;5.75;5.00;;;;;;;20.03;65.85;98869.63;5069752;28;20025;-80
2022/07/30 00:54:14;;;;;;;5.15;4.65;;;;;;;19.83;66.09;98872.84;5066573;28;20094;-80
2022/07/30 00:56:41;;;;;;;5.93;4.63;;;;;;;19.82;66.50;98875.88;5069143;28;20032;-81
2022/07/30 00:59:07;;;;;;;6.25;4.95;;;;;;;19.73;66.36;98862.25;5069920;28;20043;-80
2022/07/30 01:01:33;;;;;;;6.38;5.63;;;;;;;19.68;68.92;98864.31;5067293;28;20032;-81
2022/07/30 01:03:59;;;;;;;6.75;4.78;;;;;;;20.01;66.19;98881.88;5066502;28;20032;-82
2022/07/30 01:06:24;;;;;;;6.75;5.15;;;;;;;20.02;66.27;98869.94;5064754;28;20040;-81
2022/07/30 01:08:50;;;;;;;6.38;5.03;;;;;;;19.96;66.07;98869.25;5065998;28;20078;-80
2022/07/30 01:11:15;;;;;;;5.38;4.35;;;;;;;20.01;66.64;98874.56;5065541;28;20032;-80
2022/07/30 01:13:42;;;;;;;6.97;5.18;;;;;;;19.90;66.46;98850.72;5068469;28;20535;-80
2022/07/30 01:16:08;;;;;;;7.55;4.85;;;;;;;19.97;66.97;98873.59;5069050;28;20524;-80
2022/07/30 01:21:28;;;;;;;10.20;8.17;;;;;;;18.59;78.08;98861.75;5048544;28;20039;-80
2022/07/30 01:24:03;;;;;;;9.02;8.13;;;;;;;18.33;80.20;98865.97;5081344;28;20032;-80
2022/07/30 01:26:30;;;;;;;11.70;9.07;;;;;;;18.04;81.17;98850.03;5062692;28;20439;-81
2022/07/30 01:28:58;;;;;;;8.77;7.90;;;;;;;18.10;81.52;98861.53;5059997;28;20037;-80
2022/07/30 01:31:25;;;;;;;12.02;9.27;;;;;;;17.82;82.98;98864.16;5052335;28;20481;-80
2022/07/30 01:33:53;;;;;;;10.77;9.65;;;;;;;17.45;85.56;98868.78;5061633;28;20677;-80
2022/07/30 01:36:22;;;;;;;15.07;10.77;;;;;;;17.30;86.37;98861.69;5059064;28;20511;-80
2022/07/30 01:38:50;;;;;;;17.58;12.52;;;;;;;17.34;86.43;98875.41;5032497;28;20040;-80
2022/07/30 01:41:17;;;;;;;16.08;12.32;;;;;;;17.45;85.73;98861.47;5065574;28;20037;-80
2022/07/30 01:43:45;;;;;;;15.27;13.60;;;;;;;17.36;86.58;98867.81;5066109;28;20032;-80
2022/07/30 01:46:15;;;;;;;14.60;12.95;;;;;;;17.29;86.64;98841.22;5049463;28;20049;-80
2022/07/30 01:48:42;;;;;;;8.63;7.35;;;;;;;17.52;84.99;98867.34;5061982;28;20029;-80
2022/07/30 01:51:10;;;;;;;6.43;5.55;;;;;;;18.17;78.71;98872.78;5046942;28;20119;-80
2022/07/30 01:53:37;;;;;;;15.55;10.32;;;;;;;18.22;80.59;98867.25;5051509;28;20040;-80
2022/07/30 01:56:04;;;;;;;16.00;13.00;;;;;;;17.77;84.20;98866.97;5075737;28;20032;-80
2022/07/30 01:58:34;;;;;;;15.32;9.52;;;;;;;17.81;82.47;98859.88;5066614;28;20395;-81
2022/07/30 02:01:00;;;;;;;8.60;5.68;;;;;;;18.00;79.55;98867.13;5046819;28;20037;-80
2022/07/30 02:03:26;;;;;;;6.78;5.38;;;;;;;18.49;75.22;98870.06;5065516;28;20077;-80
2022/07/30 02:05:57;;;;;;;8.68;5.45;;;;;;;18.61;74.71;98862.22;5067061;28;20108;-80
2022/07/30 02:08:38;;;;;;;11.38;9.48;;;;;;;18.60;78.26;98868.75;5083620;28;20047;-80
2022/07/30 02:11:06;;;;;;;6.65;5.95;;;;;;;18.56;75.53;98846.94;5066148;28;20376;-81
2022/07/30 02:13:34;;;;;;;12.65;9.77;;;;;;;18.58;78.45;98858.25;5062211;28;20041;-80
2022/07/30 02:16:18;;;;;;;13.10;10.57;;;;;;;18.23;81.60;98863.47;5050145;28;20127;-80
2022/07/30 02:18:46;;;;;;;11.50;10.38;;;;;;;18.07;83.67;98856.72;5062519;28;20028;-80
2022/07/30 02:21:13;;;;;;;12.82;11.55;;;;;;;17.93;83.84;98862.91;5062214;28;20020;-80
2022/07/30 02:23:42;;;;;;;5.95;5.07;;;;;;;18.67;74.11;98859.13;5064658;28;20033;-80
2022/07/30 02:26:11;;;;;;;7.72;5.80;;;;;;;19.02;72.04;98862.22;5067839;28;20021;-80
2022/07/30 02:28:39;;;;;;;14.25;8.27;;;;;;;18.90;75.22;98867.34;5064985;28;20032;-80
2022/07/30 02:31:10;;;;;;;11.57;9.10;;;;;;;18.64;78.31;98856.25;5067203;28;21674;-80
2022/07/30 02:33:39;;;;;;;14.52;11.90;;;;;;;18.20;82.47;98867.56;5062939;28;20094;-80
2022/07/30 02:36:08;;;;;;;12.85;11.38;;;;;;;18.04;81.08;98851.94;5063428;28;20024;-80
2022/07/30 02:38:35;;;;;;;6.68;5.65;;;;;;;18.58;74.53;98860.97;5063681;28;20028;-80
2022/07/30 02:41:02;;;;;;;13.23;11.93;;;;;;;18.47;78.67;98843.31;5059387;28;20044;-80
2022/07/30 02:43:28;;;;;;;7.15;5.85;;;;;;;18.55;76.21;98871.56;5059480;28;20077;-80
2022/07/30 02:45:55;;;;;;;12.55;11.10;;;;;;;18.26;80.52;98855.56;5063726;28;20692;-80
2022/07/30 02:48:22;;;;;;;6.68;5.80;;;;;;;18.25;79.77;98858.56;5066453;28;20043;-80
2022/07/30 02:50:50;;;;;;;8.02;5.97;;;;;;;19.02;72.10;98863.03;5066434;28;20059;-80
2022/07/30 02:53:18;;;;;;;5.78;5.13;;;;;;;19.22;71.30;98850.97;5065129;28;21625;-80
2022/07/30 02:55:45;;;;;;;8.52;5.22;;;;;;;19.31;70.51;98862.66;5064028;28;20048;-80
2022/07/30 02:58:16;;;;;;;7.38;5.30;;;;;;;19.23;70.88;98857.97;5063969;28;20024;-80
2022/07/30 03:00:42;;;;;;;5.95;5.43;;;;;;;19.42;70.63;98877.59;5067029;28;20107;-80
2022/07/30 03:03:08;;;;;;;6.13;5.00;;;;;;;19.40;70.53;98880.63;5063917;28;20146;-80
2022/07/30 03:05:35;;;;;;;7.05;5.22;;;;;;;19.34;70.56;98881.84;5064361;28;20032;-80
2022/07/30 03:08:02;;;;;;;13.50;9.90;;;;;;;18.84;75.08;98860.44;5071004;28;20111;-80
2022/07/30 03:10:28;;;;;;;9.43;5.50;;;;;;;19.22;70.97;98868.00;5074028;28;20036;-80
2022/07/30 03:12:55;;;;;;;6.55;5.20;;;;;;;19.50;70.37;98887.72;5079919;28;20553;-80
2022/07/30 03:15:21;;;;;;;6.10;5.55;;;;;;;19.40;70.06;98877.91;5058012;28;20528;-80
2022/07/30 03:17:51;;;;;;;6.15;5.20;;;;;;;19.34;70.44;98876.44;5063846;28;20038;-80
2022/07/30 03:20:22;;;;;;;8.20;5.35;;;;;;;19.27;70.29;98870.59;5044425;28;20029;-80
2022/07/30 03:22:50;;;;;;;14.23;9.98;;;;;;;19.15;71.92;98883.06;5061239;28;20034;-80
2022/07/30 03:25:21;;;;;;;6.80;6.20;;;;;;;19.16;70.49;98863.81;5066238;28;20031;-80
2022/07/30 03:27:48;;;;;;;8.15;7.35;;;;;;;19.12;71.00;98894.47;5074679;28;20028;-79
2022/07/30 03:30:13;;;;;;;7.85;6.38;;;;;;;18.98;71.91;98888.28;5065083;28;20071;-80
2022/07/30 03:32:39;;;;;;;14.60;10.23;;;;;;;18.62;75.29;98874.66;5063471;28;20036;-80
2022/07/30 03:35:07;;;;;;;9.68;8.65;;;;;;;18.92;71.92;98884.88;5066461;28;20716;-80
2022/07/30 03:37:34;;;;;;;6.90;5.55;;;;;;;18.97;71.70;98887.50;5063080;28;20034;-79
2022/07/30 03:40:00;;;;;;;9.70;8.55;;;;;;;18.89;71.88;98901.72;5063591;28;20028;-80
2022/07/30 03:42:27;;;;;;;9.02;6.43;;;;;;;18.63;73.81;98895.22;5064681;28;20097;-79
2022/07/30 03:44:53;;;;;;;9.00;6.40;;;;;;;18.33;74.70;98882.19;5058566;28;20033;-80
2022/07/30 03:47:19;;;;;;;8.05;5.63;;;;;;;18.64;72.28;98880.56;5041162;28;20033;-79
2022/07/30 03:49:45;;;;;;;9.32;5.55;;;;;;;18.65;73.45;98890.31;5081818;28;20077;-80
2022/07/30 03:52:11;;;;;;;6.57;5.53;;;;;;;18.62;73.03;98902.50;5062608;28;20112;-80
2022/07/30 03:54:37;;;;;;;5.95;5.45;;;;;;;18.64;71.90;98891.38;5065018;28;20029;-79
2022/07/30 03:57:03;;;;;;;11.93;10.80;;;;;;;18.73;73.49;98895.00;5064134;28;20045;-79
2022/07/30 03:59:29;;;;;;;10.80;5.68;;;;;;;18.78;71.40;98910.34;5031638;28;20036;-79
2022/07/30 04:02:04;;;;;;;7.13;5.88;;;;;;;18.79;70.92;98891.09;5064256;28;20538;-79
2022/07/30 04:04:29;;;;;;;8.05;7.22;;;;;;;18.42;72.93;98905.56;5061932;28;20041;-79
2022/07/30 04:06:56;;;;;;;7.25;5.95;;;;;;;18.53;73.10;98912.41;5062906;28;20039;-80
2022/07/30 04:09:22;;;;;;;6.10;5.50;;;;;;;18.66;71.51;98917.03;5066879;28;20387;-79
2022/07/30 04:11:47;;;;;;;10.02;9.00;;;;;;;18.47;73.78;98905.50;5066125;28;20028;-79
2022/07/30 04:14:13;;;;;;;11.95;9.93;;;;;;;18.37;74.31;98915.66;5045810;28;20472;-79
2022/07/30 04:16:58;;;;;;;9.77;6.10;;;;;;;17.92;77.18;98928.00;5045816;28;20494;-79
2022/07/30 04:19:42;;;;;;;16.25;13.18;;;;;;;18.06;74.79;98923.47;5062105;28;20035;-79
2022/07/30 04:22:11;;;;;;;10.00;7.25;;;;;;;18.54;72.48;98935.63;5063812;28;20028;-79
2022/07/30 04:24:39;;;;;;;9.07;7.75;;;;;;;18.42;72.76;98935.28;5046613;28;20111;-79
2022/07/30 04:27:05;;;;;;;7.63;6.45;;;;;;;18.15;73.35;98934.41;5062094;28;20108;-80
2022/07/30 04:29:31;;;;;;;8.70;6.88;;;;;;;18.65;71.39;98934.34;5059424;28;20036;-79
2022/07/30 04:31:56;;;;;;;6.53;5.68;;;;;;;18.33;72.91;98945.16;5062555;28;20037;-79
2022/07/30 04:34:22;;;;;;;14.15;11.13;;;;;;;18.23;75.56;98941.84;5075531;28;20090;-79
2022/07/30 04:36:48;;;;;;;15.20;12.32;;;;;;;17.32;80.57;98935.03;5062274;28;20546;-79
2022/07/30 04:39:13;;;;;;;14.40;12.90;;;;;;;16.89;82.69;98936.94;5061100;28;20055;-80
2022/07/30 04:41:39;;;;;;;8.25;6.85;;;;;;;17.16;82.16;98949.84;5062291;28;20036;-80
2022/07/30 04:44:05;;;;;;;6.82;6.13;;;;;;;17.34;80.10;98940.16;5046434;28;20020;-80
2022/07/30 04:46:31;;;;;;;7.18;5.70;;;;;;;18.32;73.99;98948.97;5063310;28;20141;-80
2022/07/30 04:48:56;;;;;;;8.95;6.78;;;;;;;18.31;74.00;98946.56;5054474;28;20028;-80
2022/07/30 04:51:27;;;;;;;7.85;7.05;;;;;;;18.09;76.51;98952.59;5068307;28;20079;-80
2022/07/30 04:53:54;;;;;;;7.75;7.00;;;;;;;18.26;74.92;98949.38;5046006;28;20052;-79
2022/07/30 04:56:21;;;;;;;12.73;8.73;;;;;;;18.12;77.18;98948.50;5059952;28;20073;-80
2022/07/30 04:58:47;;;;;;;8.55;6.07;;;;;;;18.28;74.58;98947.16;5064617;28;20031;-80
2022/07/30 05:01:17;;;;;;;15.27;10.23;;;;;;;18.03;78.83;98936.75;5061915;28;20579;-80
2022/07/30 05:03:45;;;;;;;8.43;7.50;;;;;;;17.69;81.17;98948.59;5047662;28;20059;-80
2022/07/30 05:06:11;;;;;;;7.00;6.30;;;;;;;18.08;75.47;98926.69;5057560;28;20031;-80
2022/07/30 05:08:38;;;;;;;6.78;6.03;;;;;;;18.41;73.63;98943.69;5063805;28;20034;-80
2022/07/30 05:11:03;;;;;;;6.22;5.68;;;;;;;18.98;71.88;98947.81;5062862;28;20032;-80
2022/07/30 05:13:29;;;;;;;10.43;6.45;;;;;;;18.82;71.87;98931.06;5060841;28;20039;-80
2022/07/30 05:15:54;;;;;;;6.38;5.55;;;;;;;18.83;71.75;98948.88;5065062;28;20056;-80
2022/07/30 05:18:20;;;;;;;6.50;5.85;;;;;;;18.88;71.98;98951.50;5063165;28;20028;-79
2022/07/30 05:20:45;;;;;;;10.07;5.82;;;;;;;18.96;71.49;98950.00;5030717;28;20036;-79
2022/07/30 05:23:10;;;;;;;7.53;6.10;;;;;;;18.94;73.23;98944.06;5049743;28;20104;-79
2022/07/30 05:25:36;;;;;;;6.68;5.40;;;;;;;19.05;71.10;98940.88;5052898;28;20039;-79
2022/07/30 05:28:01;;;;;;;6.18;5.20;;;;;;;19.05;70.94;98945.47;5068901;28;20039;-80
2022/07/30 05:30:27;;;;;;;11.43;8.52;;;;;;;18.86;76.45;98955.59;5059482;28;20037;-80
2022/07/30 05:32:52;;;;;;;13.65;9.88;;;;;;;18.25;78.94;98953.16;5064580;28;20491;-80
2022/07/30 05:35:17;;;;;;;9.40;5.80;;;;;;;18.30;76.34;98970.09;5066698;28;20028;-79
2022/07/30 05:37:43;;;;;;;7.38;5.63;;;;;;;19.02;72.41;98971.25;5065420;28;20037;-80
2022/07/30 05:40:09;;;;;;;8.32;6.40;;;;;;;19.04;72.25;98963.66;5069482;28;20594;-79
2022/07/30 05:42:34;;;;;;;8.38;5.45;;;;;;;19.23;71.55;98966.22;5060569;28;20177;-79
2022/07/30 05:45:00;;;;;;;9.25;8.35;;;;;;;18.77;76.26;98955.50;5067630;28;20475;-79
2022/07/30 05:47:26;;;;;;;6.57;5.30;;;;;;;18.75;73.99;98973.13;5054226;28;20021;-79
2022/07/30 05:49:52;;;;;;;7.88;6.03;;;;;;;19.06;73.09;98977.66;5073177;28;20032;-79
2022/07/30 05:52:18;;;;;;;9.30;8.40;;;;;;;18.65;79.73;98987.63;5078792;28;20542;-79
2022/07/30 05:54:44;;;;;;;10.60;9.45;;;;;;;18.34;80.08;98964.88;5064725;28;20035;-79
2022/07/30 05:57:09;;;;;;;9.68;8.68;;;;;;;17.77;82.57;98972.25;5056506;28;20032;-80
2022/07/30 05:59:35;;;;;;;12.27;10.73;;;;;;;17.80;85.03;98982.47;5077018;28;20388;-79
2022/07/30 06:02:01;;;;;;;9.52;8.52;;;;;;;18.18;82.30;98977.84;5068422;28;20043;-79
2022/07/30 06:04:27;;;;;;;9.80;7.20;;;;;;;18.87;77.45;98992.38;5080617;28;20042;-79
2022/07/30 06:06:53;;;;;;;12.32;6.57;;;;;;;18.59;77.87;98996.91;5055210;28;20032;-80
2022/07/30 06:09:18;;;;;;;11.70;10.25;;;;;;;18.20;82.51;98996.44;5078624;28;20232;-80
2022/07/30 06:11:44;;;;;;;19.75;11.88;;;;;;;17.77;85.64;99003.84;5052425;28;20043;-79
2022/07/30 06:14:09;;;;;;;14.95;10.80;;;;;;;17.70;84.24;98998.81;5063922;28;20054;-79
2022/07/30 06:16:35;;;;;;;13.73;10.55;;;;;;;17.45;83.69;99007.19;5064878;28;20112;-79
2022/07/30 06:19:00;;;;;;;13.30;11.07;;;;;;;18.02;81.55;99002.69;5043584;28;20035;-79
2022/07/30 06:21:25;;;;;;;8.68;6.22;;;;;;;18.25;77.56;98996.38;5059381;28;20106;-79
2022/07/30 06:23:51;;;;;;;13.23;10.18;;;;;;;18.33;80.23;99011.91;5061499;28;20074;-80
2022/07/30 06:26:16;;;;;;;11.80;6.45;;;;;;;18.33;77.75;98984.88;5059735;28;20055;-80
2022/07/30 06:28:42;;;;;;;9.10;6.05;;;;;;;18.62;74.28;98993.63;5068030;28;20532;-80
2022/07/30 06:31:07;;;;;;;8.82;7.93;;;;;;;18.68;77.19;99008.66;5064601;28;20488;-80
2022/07/30 06:33:33;;;;;;;6.70;5.85;;;;;;;18.82;75.55;99004.09;5064481;28;20579;-80
2022/07/30 06:35:58;;;;;;;7.75;5.90;;;;;;;18.99;74.06;99009.72;5068137;28;20420;-81
2022/07/30 06:38:23;;;;;;;6.43;5.38;;;;;;;19.36;71.97;99000.63;5066455;28;20083;-80
2022/07/30 06:40:49;;;;;;;5.93;5.28;;;;;;;19.35;72.17;99001.75;5059778;28;20044;-80
2022/07/30 06:43:14;;;;;;;9.23;6.57;;;;;;;19.30;72.46;99008.03;5065346;28;20438;-80
2022/07/30 06:45:40;;;;;;;10.15;7.35;;;;;;;19.00;76.01;99000.50;5080294;28;20024;-81
2022/07/30 06:48:08;;;;;;;6.80;5.05;;;;;;;19.18;72.34;98990.69;5062388;28;20115;-80
2022/07/30 06:50:35;;;;;;;5.88;5.18;;;;;;;19.26;72.68;99004.31;5066910;28;20106;-80
2022/07/30 06:53:01;;;;;;;14.38;8.02;;;;;;;19.30;74.99;99002.63;5062328;28;20116;-80
2022/07/30 06:55:26;;;;;;;5.93;5.25;;;;;;;19.52;71.84;98984.88;5062461;28;20029;-80
2022/07/30 06:57:52;;;;;;;5.63;5.15;;;;;;;19.65;71.30;98992.19;5066808;28;20054;-80
2022/07/30 07:00:17;;;;;;;6.18;4.70;;;;;;;19.60;71.44;99000.41;5065270;28;20120;-80
2022/07/30 07:02:43;;;;;;;6.10;5.40;;;;;;;19.65;71.29;98984.06;5060483;28;20128;-80
2022/07/30 07:05:08;;;;;;;4.93;4.50;;;;;;;19.49;71.49;98967.34;5063288;28;20029;-80
2022/07/30 07:07:34;;;;;;;6.30;4.80;;;;;;;19.88;70.26;98985.69;5060978;28;20024;-81
2022/07/30 07:10:00;;;;;;;7.30;6.10;;;;;;;19.73;71.32;98992.28;5049479;28;20051;-80
2022/07/30 07:12:25;;;;;;;5.72;5.20;;;;;;;19.88;70.08;98972.97;5067131;28;20564;-80
2022/07/30 07:14:51;;;;;;;6.18;4.70;;;;;;;19.93;70.50;98977.47;5045965;28;20033;-80
2022/07/30 07:17:16;;;;;;;10.75;5.70;;;;;;;19.77;71.94;98982.41;5063140;28;20025;-80
2022/07/30 07:19:42;;;;;;;7.72;4.72;;;;;;;19.58;72.21;98979.06;5048960;28;20061;-80
2022/07/30 07:22:07;;;;;;;7.35;5.85;;;;;;;19.70;72.57;98978.53;5062392;28;20020;-80
2022/07/30 07:24:33;;;;;;;5.80;5.20;;;;;;;19.92;71.08;98979.38;5065198;28;20024;-80
2022/07/30 07:26:58;;;;;;;4.97;4.22;;;;;;;19.84;70.50;98954.91;5060140;28;20036;-80
2022/07/30 07:29:24;;;;;;;4.70;4.30;;;;;;;19.70;72.69;98952.25;5066348;28;20117;-80
2022/07/30 07:31:49;;;;;;;6.32;5.30;;;;;;;19.25;76.10;98964.84;5049347;28;20036;-80
2022/07/30 07:34:14;;;;;;;7.57;6.88;;;;;;;19.20;80.08;98964.94;5063155;28;20031;-80
2022/07/30 07:36:40;;;;;;;5.90;4.88;;;;;;;19.75;71.90;98962.97;5061394;28;20024;-80
2022/07/30 07:39:08;;;;;;;5.15;4.65;;;;;;;20.09;70.79;98967.88;5065283;28;20484;-80
2022/07/30 07:41:35;;;;;;;5.68;4.50;;;;;;;19.80;72.37;98964.75;5031599;28;20025;-80
2022/07/30 07:44:01;;;;;;;11.57;6.78;;;;;;;19.99;75.02;98968.09;5056390;28;20520;-80
2022/07/30 07:46:26;;;;;;;6.90;5.10;;;;;;;19.93;72.00;98964.72;5060338;28;20024;-80
2022/07/30 07:48:52;;;;;;;8.52;5.72;;;;;;;19.89;75.47;98966.44;5056803;28;20799;-80
2022/07/30 07:51:17;;;;;;;7.18;6.47;;;;;;;19.91;75.66;98952.59;5079225;28;20029;-80
2022/07/30 07:53:43;;;;;;;5.72;5.05;;;;;;;19.83;72.58;98945.19;5063262;28;20388;-80
2022/07/30 07:56:08;;;;;;;7.47;5.05;;;;;;;20.06;74.95;98966.59;5058240;28;20037;-80
2022/07/30 07:58:34;;;;;;;5.60;5.03;;;;;;;20.24;70.06;98953.19;5080060;28;20032;-80
2022/07/30 08:00:59;;;;;;;6.97;4.65;;;;;;;20.48;69.73;98959.91;5056507;28;20036;-80
2022/07/30 08:03:24;;;;;;;5.07;4.63;;;;;;;20.40;69.57;98966.03;5059614;28;20100;-80
2022/07/30 08:05:50;;;;;;;5.22;4.80;;;;;;;20.13;73.74;98966.16;5060150;28;20051;-80
2022/07/30 08:08:15;;;;;;;4.80;4.32;;;;;;;20.59;69.02;98955.00;5061856;28;20036;-79
2022/07/30 08:10:41;;;;;;;5.43;4.60;;;;;;;20.51;70.64;98967.41;5047621;28;20075;-79
2022/07/30 08:13:06;;;;;;;5.07;4.63;;;;;;;20.56;69.20;98956.41;5065230;28;20043;-79
2022/07/30 08:15:32;;;;;;;6.60;4.45;;;;;;;20.66;70.29;98966.22;5045221;28;20028;-79
2022/07/30 08:17:57;;;;;;;5.10;4.70;;;;;;;20.24;76.10;98948.56;5060352;28;20082;-79
2022/07/30 08:20:23;;;;;;;5.15;4.63;;;;;;;20.68;72.88;98953.94;5061073;28;20070;-80
2022/07/30 08:22:49;;;;;;;6.85;4.80;;;;;;;20.99;71.71;98956.63;5041097;28;20118;-79
2022/07/30 08:25:15;;;;;;;7.50;5.20;;;;;;;21.11;71.35;98964.19;5047900;28;20496;-80
2022/07/30 08:27:40;;;;;;;6.07;5.47;;;;;;;21.13;70.90;98964.69;5064445;28;20017;-79
2022/07/30 08:30:07;;;;;;;5.47;4.97;;;;;;;21.16;71.02;98967.59;5046355;28;20040;-79
2022/07/30 08:32:34;;;;;;;6.30;5.72;;;;;;;21.04;73.40;98964.66;5059317;28;20040;-79
2022/07/30 08:34:59;;;;;;;8.20;5.53;;;;;;;21.02;72.49;98950.56;5059252;28;20040;-79
2022/07/30 08:37:25;;;;;;;6.93;4.80;;;;;;;21.38;70.46;98966.69;5058532;28;20396;-79
2022/07/30 08:39:50;;;;;;;11.85;7.18;;;;;;;21.17;75.46;98966.47;5060201;28;20039;-79
2022/07/30 08:42:16;;;;;;;6.90;4.45;;;;;;;21.14;70.70;98956.25;5075376;28;20028;-79
2022/07/30 08:44:44;;;;;;;7.20;6.25;;;;;;;21.07;74.78;98964.03;5045914;28;20028;-79
2022/07/30 08:47:15;;;;;;;4.63;4.07;;;;;;;21.50;69.78;98975.00;5058281;28;20124;-80
2022/07/30 08:49:40;;;;;;;5.18;4.72;;;;;;;21.36;69.85;98967.00;5060073;28;20069;-80
2022/07/30 08:52:07;;;;;;;6.28;4.78;;;;;;;21.31;70.32;98960.91;5041031;28;20283;-79
2022/07/30 08:54:34;;;;;;;7.80;4.68;;;;;;;21.40;68.58;98969.91;5060009;28;20070;-79
2022/07/30 08:56:59;;;;;;;6.50;4.38;;;;;;;21.19;68.87;98953.38;5060007;28;20035;-80
2022/07/30 08:59:25;;;;;;;7.35;5.78;;;;;;;21.09;73.21;98955.56;5067148;28;20036;-80
2022/07/30 09:01:51;;;;;;;6.57;5.00;;;;;;;21.09;69.42;98969.94;5067753;28;20141;-79
2022/07/30 09:04:17;;;;;;;5.85;4.63;;;;;;;21.13;69.50;98983.69;5067365;28;20028;-79
2022/07/30 09:06:43;;;;;;;7.72;5.00;;;;;;;20.94;69.70;98970.34;5065771;28;20028;-79
2022/07/30 09:09:09;;;;;;;8.15;5.05;;;;;;;20.87;70.47;98984.38;5047518;28;20048;-79
2022/07/30 09:11:35;;;;;;;5.50;4.88;;;;;;;20.82;71.23;98987.19;5048081;28;20117;-79
2022/07/30 09:14:12;;;;;;;6.97;5.30;;;;;;;20.75;71.11;98983.34;5062452;28;20032;-79
2022/07/30 09:16:38;;;;;;;6.13;5.38;;;;;;;20.58;72.41;98986.75;5065929;28;20032;-79
2022/07/30 09:19:15;;;;;;;6.47;5.35;;;;;;;20.46;75.79;99000.09;5064721;28;20032;-79
2022/07/30 09:21:41;;;;;;;5.95;4.75;;;;;;;20.73;71.78;98985.53;5067245;28;20031;-79
2022/07/30 09:24:10;;;;;;;8.70;5.05;;;;;;;20.63;71.67;98983.91;5067994;28;20032;-79
2022/07/30 09:26:55;;;;;;;7.20;4.90;;;;;;;20.79;71.24;98993.25;5066386;28;20031;-78
2022/07/30 09:29:24;;;;;;;9.15;5.80;;;;;;;20.51;72.51;98989.09;5061600;28;20114;-78
2022/07/30 09:31:53;;;;;;;5.13;4.43;;;;;;;20.42;72.18;98992.88;5064066;28;20511;-77
2022/07/30 09:34:27;;;;;;;6.18;5.00;;;;;;;20.54;72.02;98988.47;5065108;28;20468;-77
2022/07/30 09:36:53;;;;;;;4.93;4.43;;;;;;;20.65;72.27;98984.41;5064663;28;20028;-78
2022/07/30 09:39:39;;;;;;;6.80;4.03;;;;;;;20.74;72.48;98996.09;5080610;28;20036;-78
2022/07/30 09:42:34;;;;;;;8.80;4.97;;;;;;;20.76;74.42;98988.44;5063746;28;20389;-78
2022/07/30 09:45:10;;;;;;;7.72;5.00;;;;;;;20.73;75.53;98985.53;5080191;28;20033;-78
2022/07/30 09:47:37;;;;;;;8.43;5.00;;;;;;;21.15;72.29;98990.41;5062489;28;20032;-78
2022/07/30 09:50:11;;;;;;;6.45;4.68;;;;;;;21.29;75.09;98990.31;5063035;28;20102;-78
2022/07/30 09:52:38;;;;;;;5.88;4.28;;;;;;;21.47;70.29;98991.97;5065363;28;20249;-78
2022/07/30 09:55:04;;;;;;;4.78;4.00;;;;;;;21.44;70.98;98981.72;5061159;28;20035;-78
2022/07/30 09:57:30;;;;;;;5.70;3.80;;;;;;;21.62;69.52;98992.28;5078945;28;20040;-78
2022/07/30 10:00:00;;;;;;;4.05;3.63;;;;;;;21.53;70.39;98991.50;5062549;28;20444;-78
2022/07/30 10:02:31;;;;;;;4.30;3.90;;;;;;;21.43;70.09;98980.91;5081765;28;20492;-78
2022/07/30 10:05:11;;;;;;;3.65;3.35;;;;;;;21.37;72.29;98990.31;5062031;28;20036;-78
2022/07/30 10:07:37;;;;;;;4.70;4.30;;;;;;;21.37;70.12;98990.31;5058930;28;20091;-78
2022/07/30 10:10:03;;;;;;;4.63;3.67;;;;;;;21.25;70.13;98979.25;5062156;28;20060;-78
2022/07/30 10:12:30;;;;;;;4.00;3.47;;;;;;;21.42;69.89;98976.63;5063935;28;20040;-78
2022/07/30 10:15:00;;;;;;;4.90;3.60;;;;;;;21.52;69.15;98978.22;5049499;28;20039;-78
2022/07/30 10:17:26;;;;;;;4.40;3.90;;;;;;;21.78;68.43;98994.56;5074556;28;20020;-78
2022/07/30 10:19:52;;;;;;;5.10;3.90;;;;;;;21.87;69.11;98996.19;5067304;28;20081;-78
2022/07/30 10:22:17;;;;;;;4.88;3.95;;;;;;;21.90;70.43;98979.28;5065504;28;20040;-77
2022/07/30 10:24:44;;;;;;;6.22;4.07;;;;;;;22.27;69.09;98997.66;5062583;28;20412;-77
2022/07/30 10:27:10;;;;;;;4.00;3.38;;;;;;;22.59;67.85;98990.91;5052994;28;20040;-77
2022/07/30 10:29:37;;;;;;;3.75;3.45;;;;;;;22.84;65.85;98987.34;5065298;28;20040;-77
2022/07/30 10:32:03;;;;;;;3.53;3.22;;;;;;;23.04;65.06;98992.06;5067178;28;20384;-78
2022/07/30 10:34:31;;;;;;;3.20;2.88;;;;;;;23.25;64.45;98988.59;5066822;28;20569;-77
2022/07/30 10:37:00;;;;;;;4.13;3.60;;;;;;;23.44;63.67;98983.56;5058972;28;20032;-78
2022/07/30 10:39:34;;;;;;;3.70;3.38;;;;;;;23.48;63.54;98993.47;5063422;28;20021;-78
2022/07/30 10:42:15;;;;;;;3.70;3.30;;;;;;;23.52;63.55;98997.16;5080152;28;20032;-77
2022/07/30 10:44:54;;;;;;;4.00;3.17;;;;;;;23.58;62.72;99000.50;5080457;28;20056;-77
2022/07/30 10:47:20;;;;;;;4.32;3.92;;;;;;;23.66;63.37;98991.44;5056136;28;20510;-78
2022/07/30 10:50:13;;;;;;;3.70;3.40;;;;;;;23.74;63.53;99001.53;5065004;28;20031;-77
2022/07/30 10:52:45;;;;;;;4.97;3.60;;;;;;;23.69;62.81;99001.72;5060747;28;20423;-78
2022/07/30 10:55:16;;;;;;;3.90;3.55;;;;;;;23.61;63.66;99008.78;5049757;28;20037;-77
2022/07/30 10:58:01;;;;;;;3.40;3.17;;;;;;;23.94;63.01;99013.56;5056390;28;20029;-77
2022/07/30 11:00:33;;;;;;;5.57;3.72;;;;;;;23.90;62.54;99018.06;5059633;28;20031;-78
2022/07/30 11:03:18;;;;;;;4.05;3.38;;;;;;;24.02;63.19;99016.25;5045156;28;20106;-78
2022/07/30 11:05:46;;;;;;;6.00;4.07;;;;;;;24.14;62.74;99015.50;5073554;28;20507;-78
2022/07/30 11:08:31;;;;;;;5.28;3.85;;;;;;;24.36;61.58;99012.44;5039858;28;20621;-78
2022/07/30 11:10:57;;;;;;;4.28;3.40;;;;;;;24.29;61.93;99014.91;5073911;28;20396;-78
2022/07/30 11:13:58;;;;;;;3.70;3.30;;;;;;;24.32;61.74;99019.72;5072171;28;20032;-78
2022/07/30 11:16:32;;;;;;;6.00;4.38;;;;;;;24.46;61.04;99012.81;5061369;28;20565;-78
2022/07/30 11:19:23;;;;;;;6.45;4.28;;;;;;;24.36;61.35;99015.97;5055619;28;20364;-78
2022/07/30 11:22:20;;;;;;;5.00;4.38;;;;;;;24.40;61.28;99016.91;5064537;28;20032;-78
2022/07/30 11:24:46;;;;;;;4.78;4.38;;;;;;;23.59;61.68;99013.00;5079765;28;20024;-77
2022/07/30 11:27:40;;;;;;;4.13;3.75;;;;;;;24.59;62.55;99019.16;5046084;28;20035;-78
2022/07/30 11:30:28;;;;;;;7.15;4.57;;;;;;;24.68;61.12;99019.88;5058744;28;20062;-78
2022/07/30 11:33:02;;;;;;;7.55;3.72;;;;;;;24.84;59.75;99020.84;5076481;28;20527;-78
2022/07/30 11:35:29;;;;;;;8.43;4.38;;;;;;;24.78;60.16;99005.81;5062485;28;20221;-77
2022/07/30 11:37:58;;;;;;;3.70;3.40;;;;;;;24.79;59.75;99020.25;5061434;28;20047;-77